Bismarck, ND (58501)

6:27 PM CDT on July 26, 2016 (GMT -0500)
NDDOT | | Change Station

Elev 1961 ft 46.82 °N, 100.83 °W | Updated 7 days ago

Cloudy
Cloudy
70 °F
Feels Like 70 °F
N
10
Wind Variable Wind from NNE
Gusts 15 mph

Today
High -- | Low -- °F
--% Chance of Precip.
Yesterday
High -- | Low -- °F
Precip. -- in
Pressure 29.97 in
Visibility 10.0 miles
Clouds Few 7500 ft
Dew Point 65 °F
Humidity 83%
Rainfall in
Snow Depth Not available.
6:16 AM 9:22 PM
Waning Gibbous, 50% visible
METAR KBIS 262252Z 03016KT 10SM FEW075 27/19 A3000 RMK AO2 LTG DSNT E-SW SLP149 T02670189
Pressure 29.97 in
Visibility 10.0 miles
Clouds Few 7500 ft
Dew Point 65 °F
Humidity 83%
Rainfall in
Snow Depth Not available.
6:16 AM 9:22 PM
Waning Gibbous, 50% visible
METAR KBIS 262252Z 03016KT 10SM FEW075 27/19 A3000 RMK AO2 LTG DSNT E-SW SLP149 T02670189

10-Day Weather Forecast

Almanac

Astronomy

Jul. 26, 2016 Rise Set
Actual Time
Civil Twilight
Nautical Twilight
Astronomical Twilight
Moon
Length of Visible Light
Length of Day
Tomorrow will be .
, % of the Moon is Illuminated

Today's Extremes

State Highs State Lows

Community

WunderPhotos

Upload Photos

1,927,729 photos uploaded!

WunderBlog® & News

Nearby

Air Quality

  Air Quality AQ Index Pollutant
Not available.

Snow Depth

Station Depth Elevation

Earthquake Activity

City Distance Mag. Time & Date
Minimum magnitude displayed is 2.5.

Coastal Water Temperatures

Place Temperature

Stations

Nearby Weather Stations

Station Location Temp. Windchill Dew Point Humidity Wind Precip. Elev Updated Type
                   

Watches & Warnings

There are currently no watches in effect.